Time;durP1;ratioP1;P1;durP2;ratioP2;P2;SDS_P1;SDS_P2;PMS_P1;PMS_P2;Temp;Humidity;BMP_temperature;BMP_pressure;BME280_temperature;BME280_humidity;BME280_pressure;Samples;Min_cycle;Max_cycle;Signal;HPM_P1;HPM_P2
2022/08/15 00:00:34;;;;;;;4.20;2.03;;;23.20;99.90;;;;;;20717438;28;20092;-81
2022/08/15 00:10:35;;;;;;;2.45;1.35;;;23.00;99.90;;;;;;20728564;28;20445;-81
2022/08/15 00:20:37;;;;;;;2.20;1.13;;;23.00;99.90;;;;;;20726818;28;20225;-81
2022/08/15 00:30:43;;;;;;;2.97;1.30;;;23.10;99.90;;;;;;20723338;28;20034;-81
2022/08/15 00:51:34;;;;;;;1.95;1.15;;;23.10;99.90;;;;;;20741463;28;20763;-81
2022/08/15 01:01:35;;;;;;;4.17;2.00;;;23.10;99.90;;;;;;20724423;28;20462;-83
2022/08/15 01:11:53;;;;;;;3.55;1.45;;;23.20;99.90;;;;;;20731059;28;20044;-83
2022/08/15 01:22:10;;;;;;;2.30;1.17;;;23.10;99.90;;;;;;20722240;28;20044;-83
2022/08/15 01:32:11;;;;;;;1.70;0.97;;;23.10;99.90;;;;;;20715554;28;21733;-83
2022/08/15 01:42:19;;;;;;;3.53;1.88;;;23.10;99.90;;;;;;20718665;28;20112;-83
2022/08/15 01:52:24;;;;;;;3.33;1.50;;;22.90;99.90;;;;;;20727935;28;20514;-83
2022/08/15 02:02:27;;;;;;;2.10;1.05;;;23.00;99.90;;;;;;20721704;28;20184;-83
2022/08/15 02:12:33;;;;;;;2.83;1.45;;;23.00;99.90;;;;;;20702098;28;20035;-83
2022/08/15 02:22:34;;;;;;;3.50;1.60;;;23.10;99.90;;;;;;20722016;28;20041;-83
2022/08/15 02:32:38;;;;;;;3.40;1.52;;;23.10;99.90;;;;;;20750005;28;20033;-83
2022/08/15 02:42:40;;;;;;;2.83;1.40;;;23.10;99.90;;;;;;20717291;28;20484;-83
2022/08/15 02:52:43;;;;;;;3.60;1.23;;;23.10;99.90;;;;;;20719033;28;20045;-83
2022/08/15 03:02:50;;;;;;;5.25;2.30;;;23.00;99.90;;;;;;20716644;28;20033;-82
2022/08/15 03:12:59;;;;;;;5.53;3.10;;;22.30;99.90;;;;;;20748473;28;20029;-83
2022/08/15 03:23:01;;;;;;;3.53;2.00;;;22.10;99.90;;;;;;20749378;28;20104;-83
2022/08/15 03:33:03;;;;;;;4.57;2.65;;;22.10;99.90;;;;;;20735018;28;20045;-83
2022/08/15 03:43:10;;;;;;;4.20;1.90;;;22.00;99.90;;;;;;20721779;28;20921;-83
2022/08/15 03:53:11;;;;;;;4.07;1.95;;;22.00;99.90;;;;;;20724678;28;20030;-83
2022/08/15 04:03:25;;;;;;;5.15;1.90;;;22.00;99.90;;;;;;20748004;28;20479;-83
2022/08/15 04:13:26;;;;;;;5.32;2.33;;;21.90;99.90;;;;;;20727796;28;20048;-83
2022/08/15 04:23:28;;;;;;;4.03;2.10;;;22.00;99.90;;;;;;20728039;28;20100;-83
2022/08/15 04:33:31;;;;;;;3.90;1.90;;;22.00;99.90;;;;;;20724365;28;20402;-83
2022/08/15 04:43:33;;;;;;;4.68;2.40;;;21.90;99.90;;;;;;20724629;28;20107;-83
2022/08/15 04:53:35;;;;;;;3.85;1.67;;;21.90;99.90;;;;;;20716939;28;20557;-83
2022/08/15 05:03:38;;;;;;;5.95;2.25;;;21.80;99.90;;;;;;20730918;28;20358;-84
2022/08/15 05:13:40;;;;;;;3.47;1.80;;;21.60;99.90;;;;;;20718447;28;20181;-84
2022/08/15 05:23:42;;;;;;;3.75;1.92;;;21.80;99.90;;;;;;20717314;28;20038;-83
2022/08/15 05:33:45;;;;;;;3.80;2.13;;;21.80;99.90;;;;;;20733353;28;20037;-84
2022/08/15 05:44:16;;;;;;;3.60;1.42;;;21.80;99.90;;;;;;20701226;28;20041;-84
2022/08/15 05:54:54;;;;;;;3.40;1.85;;;21.70;99.90;;;;;;20742689;28;20808;-83
2022/08/15 06:05:12;;;;;;;2.47;1.25;;;21.90;99.90;;;;;;20742525;28;20104;-86
2022/08/15 06:15:46;;;;;;;2.28;1.30;;;22.40;99.90;;;;;;20715158;28;20894;-86
2022/08/15 06:26:28;;;;;;;2.40;1.27;;;22.50;99.90;;;;;;20721121;28;20167;-86
2022/08/15 06:36:41;;;;;;;2.17;1.17;;;22.80;99.90;;;;;;20724494;28;20502;-86
2022/08/15 06:46:42;;;;;;;2.38;1.00;;;22.70;99.90;;;;;;20731574;28;20065;-86
2022/08/15 06:57:02;;;;;;;1.77;0.57;;;23.00;99.90;;;;;;20744555;28;20033;-85
2022/08/15 07:07:34;;;;;;;3.55;1.08;;;23.30;99.90;;;;;;20740340;28;20092;-86
2022/08/15 07:17:42;;;;;;;3.00;1.50;;;23.40;99.90;;;;;;20735886;28;20655;-87
2022/08/15 07:27:57;;;;;;;1.38;0.68;;;23.40;99.90;;;;;;20742619;28;20053;-87
2022/08/15 07:38:02;;;;;;;3.95;1.30;;;23.40;99.90;;;;;;20751584;28;20041;-87
2022/08/15 07:48:24;;;;;;;1.35;0.63;;;23.60;99.90;;;;;;20744586;28;20053;-87
2022/08/15 07:58:25;;;;;;;1.85;0.98;;;23.80;99.90;;;;;;20742023;28;20485;-84
2022/08/15 08:08:34;;;;;;;2.10;0.95;;;23.90;99.90;;;;;;20750075;28;20428;-87
2022/08/15 08:18:44;;;;;;;2.22;1.08;;;24.30;99.90;;;;;;20742650;28;20455;-85
2022/08/15 08:28:59;;;;;;;1.27;0.50;;;24.80;99.90;;;;;;20720441;28;20048;-85
2022/08/15 08:39:23;;;;;;;1.23;0.60;;;25.00;99.90;;;;;;20746568;28;20041;-85
2022/08/15 08:49:32;;;;;;;1.95;0.80;;;25.40;99.90;;;;;;20748970;28;21740;-85
2022/08/15 08:59:59;;;;;;;2.63;1.00;;;25.70;99.90;;;;;;20715930;28;21674;-85
2022/08/15 09:10:06;;;;;;;6.43;1.73;;;25.30;99.90;;;;;;20720316;28;20571;-86
2022/08/15 09:20:10;;;;;;;2.28;0.77;;;25.40;99.90;;;;;;20710530;28;20620;-85
2022/08/15 09:30:12;;;;;;;1.73;0.93;;;25.40;99.90;;;;;;20732175;28;22554;-86
2022/08/15 09:40:19;;;;;;;2.47;0.85;;;25.50;99.90;;;;;;20728389;28;20050;-85
2022/08/15 09:50:39;;;;;;;4.25;1.63;;;25.20;99.90;;;;;;20735934;28;20068;-84
2022/08/15 10:00:52;;;;;;;3.53;1.95;;;25.10;99.90;;;;;;20728258;28;20294;-84
2022/08/15 10:11:07;;;;;;;4.68;1.50;;;24.90;99.90;;;;;;20730497;28;20033;-84
2022/08/15 10:21:20;;;;;;;4.82;1.58;;;25.00;99.90;;;;;;20773789;28;20037;-84
2022/08/15 10:31:25;;;;;;;3.83;2.08;;;24.80;99.90;;;;;;20772766;28;20653;-84
2022/08/15 10:41:48;;;;;;;3.70;1.83;;;25.00;99.90;;;;;;20754097;28;20668;-84
2022/08/15 10:52:34;;;;;;;4.65;2.78;;;25.00;99.90;;;;;;20750960;28;20037;-79
2022/08/15 11:02:50;;;;;;;2.78;1.40;;;25.10;99.90;;;;;;20734533;28;20072;-85
2022/08/15 11:12:59;;;;;;;4.60;2.15;;;25.10;99.90;;;;;;20759777;28;20041;-83
2022/08/15 11:23:00;;;;;;;7.95;1.90;;;24.90;99.90;;;;;;20756381;28;20033;-84
2022/08/15 11:33:40;;;;;;;5.00;2.25;;;24.80;99.90;;;;;;20749247;28;20037;-84
2022/08/15 11:43:41;;;;;;;3.58;1.80;;;24.70;99.90;;;;;;20771285;28;20100;-84
2022/08/15 11:54:22;;;;;;;5.40;1.73;;;25.00;99.90;;;;;;20758520;28;20108;-84
2022/08/15 12:04:28;;;;;;;3.65;1.80;;;25.40;99.90;;;;;;20776143;28;20832;-83
2022/08/15 12:14:30;;;;;;;3.42;1.48;;;25.00;99.90;;;;;;20774739;28;20744;-85
2022/08/15 12:24:35;;;;;;;3.13;1.50;;;24.90;99.90;;;;;;20761661;28;20048;-83
2022/08/15 12:34:38;;;;;;;3.95;1.88;;;25.10;99.90;;;;;;20768066;28;20332;-87
2022/08/15 12:44:39;;;;;;;3.58;1.75;;;25.40;99.90;;;;;;20728074;28;20123;-84
2022/08/15 12:54:40;;;;;;;3.97;2.15;;;25.50;99.90;;;;;;20749049;28;20088;-83
2022/08/15 13:04:47;;;;;;;6.28;2.35;;;25.40;99.90;;;;;;20772452;28;20030;-84
2022/08/15 13:14:48;;;;;;;4.00;1.83;;;25.20;99.90;;;;;;20735500;28;20080;-80
2022/08/15 13:24:50;;;;;;;5.15;2.50;;;24.80;99.90;;;;;;20747248;28;20042;-81
2022/08/15 13:34:52;;;;;;;3.55;2.15;;;24.60;99.90;;;;;;20747050;28;20457;-83
2022/08/15 13:44:57;;;;;;;4.20;2.38;;;24.70;99.90;;;;;;20727711;28;20567;-84
2022/08/15 13:54:58;;;;;;;5.93;2.72;;;24.70;99.90;;;;;;20732715;28;20440;-84
2022/08/15 14:05:01;;;;;;;5.63;3.13;;;24.90;99.90;;;;;;20727770;28;20475;-83
2022/08/15 14:15:03;;;;;;;5.47;2.25;;;25.10;99.90;;;;;;20752056;28;20041;-81
2022/08/15 14:25:06;;;;;;;4.70;2.35;;;25.70;99.90;;;;;;20772342;28;20080;-83
2022/08/15 14:35:09;;;;;;;4.43;2.35;;;26.90;99.90;;;;;;20758468;28;20104;-81
2022/08/15 14:45:10;;;;;;;7.88;2.58;;;26.80;99.90;;;;;;20711824;28;20069;-80
2022/08/15 14:55:12;;;;;;;3.92;2.00;;;26.20;99.90;;;;;;20708872;28;20040;-79
2022/08/15 15:05:14;;;;;;;4.65;2.30;;;26.10;99.90;;;;;;20738405;28;20451;-81
2022/08/15 15:15:15;;;;;;;9.25;3.78;;;26.60;99.90;;;;;;20739840;28;20601;-81
2022/08/15 15:25:17;;;;;;;6.30;3.13;;;27.20;99.90;;;;;;20727776;28;21493;-81
2022/08/15 15:35:18;;;;;;;6.03;2.97;;;26.70;99.90;;;;;;20733690;28;20559;-81
2022/08/15 15:45:19;;;;;;;5.18;2.58;;;26.30;99.90;;;;;;20762916;28;20501;-82
2022/08/15 15:55:21;;;;;;;6.07;2.63;;;26.40;99.90;;;;;;20741260;28;22617;-81
2022/08/15 16:05:27;;;;;;;3.60;2.03;;;26.30;99.90;;;;;;20713241;28;20048;-81
2022/08/15 16:15:48;;;;;;;3.33;1.50;;;26.10;99.90;;;;;;20766960;28;20056;-81
2022/08/15 16:26:12;;;;;;;3.45;1.40;;;25.90;99.90;;;;;;20756034;28;20714;-82
2022/08/15 16:36:28;;;;;;;4.25;2.40;;;25.70;99.90;;;;;;20769999;28;20655;-82
2022/08/15 16:46:32;;;;;;;22.90;2.75;;;25.50;99.90;;;;;;20770820;28;20041;-85
2022/08/15 16:56:46;;;;;;;3.75;2.10;;;25.20;99.90;;;;;;20773255;28;20037;-83
2022/08/15 17:07:23;;;;;;;4.80;2.95;;;24.70;99.90;;;;;;20757365;28;20030;-84
2022/08/15 17:17:37;;;;;;;14.93;3.60;;;24.10;99.90;;;;;;20730549;28;20544;-82
2022/08/15 17:27:48;;;;;;;7.53;3.50;;;23.90;99.90;;;;;;20750659;28;20609;-83
2022/08/15 17:37:51;;;;;;;7.55;2.40;;;23.70;99.90;;;;;;20753556;28;22234;-82
2022/08/15 17:47:58;;;;;;;5.38;2.58;;;23.60;99.90;;;;;;20734854;28;20631;-83
2022/08/15 17:58:22;;;;;;;6.63;3.63;;;23.40;99.90;;;;;;20741790;28;20100;-83
2022/08/15 18:08:25;;;;;;;5.78;3.15;;;23.30;99.90;;;;;;20747440;28;20068;-83
2022/08/15 18:18:26;;;;;;;2.88;1.48;;;23.00;99.90;;;;;;20727387;28;20572;-83
2022/08/15 18:28:31;;;;;;;3.45;1.75;;;22.50;99.90;;;;;;20749535;28;20528;-83
2022/08/15 18:38:35;;;;;;;6.60;2.85;;;22.30;99.90;;;;;;20748123;28;20045;-83
2022/08/15 18:48:37;;;;;;;2.40;1.52;;;22.00;99.90;;;;;;20744977;28;20042;-83
2022/08/15 18:58:39;;;;;;;2.33;1.17;;;22.00;99.90;;;;;;20761712;28;20033;-82
2022/08/15 19:08:45;;;;;;;2.35;1.40;;;21.90;99.90;;;;;;20734317;28;20037;-83
2022/08/15 19:18:54;;;;;;;2.67;1.45;;;21.90;99.90;;;;;;20737087;28;20037;-82
2022/08/15 19:29:15;;;;;;;1.40;0.98;;;21.90;99.90;;;;;;20730763;28;20080;-83
2022/08/15 19:39:21;;;;;;;2.22;1.40;;;21.80;99.90;;;;;;20747222;28;20037;-83
2022/08/15 20:00:17;;;;;;;1.98;0.93;;;21.50;99.90;;;;;;20759885;28;20738;-83
2022/08/15 20:10:25;;;;;;;2.67;1.45;;;21.30;99.90;;;;;;20739434;28;21542;-83
2022/08/15 20:20:58;;;;;;;1.55;0.82;;;21.20;99.90;;;;;;20747540;28;20041;-83
2022/08/15 20:31:36;;;;;;;1.73;1.02;;;21.20;99.90;;;;;;20740648;28;21095;-82
2022/08/15 20:41:53;;;;;;;2.38;1.10;;;21.20;99.90;;;;;;20764450;28;20758;-82
2022/08/15 20:52:05;;;;;;;2.70;1.47;;;21.10;99.90;;;;;;20749246;28;20087;-82
2022/08/15 21:02:32;;;;;;;5.68;1.85;;;21.10;99.90;;;;;;20755383;28;20652;-83
2022/08/15 21:12:51;;;;;;;5.25;1.38;;;21.00;99.90;;;;;;20719450;28;21234;-83
2022/08/15 21:23:20;;;;;;;3.00;1.83;;;21.00;99.90;;;;;;20736603;28;20050;-83
2022/08/15 21:33:44;;;;;;;2.65;1.30;;;21.10;99.90;;;;;;20712873;28;21589;-83
2022/08/15 21:44:30;;;;;;;3.15;1.45;;;21.00;99.90;;;;;;20737149;28;22466;-83
2022/08/15 21:54:49;;;;;;;2.88;1.35;;;20.90;99.90;;;;;;20712137;28;20950;-83
2022/08/15 22:04:50;;;;;;;3.58;1.50;;;20.90;99.90;;;;;;20757701;28;21958;-83
2022/08/15 22:14:52;;;;;;;2.90;1.63;;;20.90;99.90;;;;;;20750820;28;20033;-82
2022/08/15 22:24:53;;;;;;;2.70;1.67;;;20.90;99.90;;;;;;20750323;28;20629;-82
2022/08/15 22:34:55;;;;;;;3.25;1.58;;;20.90;99.90;;;;;;20747354;28;20049;-82
2022/08/15 22:44:59;;;;;;;3.10;1.23;;;21.00;99.90;;;;;;20739743;28;20033;-83
2022/08/15 22:55:02;;;;;;;2.38;1.33;;;21.00;99.90;;;;;;20742645;28;21838;-82
2022/08/15 23:05:24;;;;;;;2.67;1.20;;;21.00;99.90;;;;;;20757459;28;20037;-82
2022/08/15 23:15:32;;;;;;;4.57;1.65;;;21.00;99.90;;;;;;20726503;28;20140;-82
2022/08/15 23:25:33;;;;;;;3.33;1.70;;;21.10;99.90;;;;;;20748299;28;20038;-82
2022/08/15 23:35:36;;;;;;;4.45;1.85;;;21.20;99.90;;;;;;20758966;28;20096;-82
2022/08/15 23:45:41;;;;;;;7.03;1.58;;;21.30;99.90;;;;;;20755157;28;20096;-82
2022/08/15 23:55:43;;;;;;;3.63;1.70;;;21.10;99.90;;;;;;20751031;28;20100;-82
